createdAt,value
2018-08-09T00:01:34.554Z,50.54
2018-08-09T00:04:03.714Z,50.21
2018-08-09T00:06:32.855Z,50.39
2018-08-09T00:09:02.023Z,50.62
2018-08-09T00:11:31.171Z,51.09
2018-08-09T00:14:00.327Z,50.55
2018-08-09T00:16:29.587Z,51.01
2018-08-09T00:18:58.880Z,50.99
2018-08-09T00:21:28.081Z,50.70
2018-08-09T00:23:57.316Z,50.89
2018-08-09T00:26:26.479Z,50.59
2018-08-09T00:28:55.826Z,50.54
2018-08-09T00:31:25.033Z,50.66
2018-08-09T00:33:54.286Z,50.80
2018-08-09T00:36:23.483Z,50.74
2018-08-09T00:38:52.696Z,50.35
2018-08-09T00:41:21.846Z,50.52
2018-08-09T00:43:51.214Z,50.47
2018-08-09T00:46:20.554Z,50.59
2018-08-09T00:48:49.741Z,50.66
2018-08-09T00:51:19.016Z,51.04
2018-08-09T00:53:48.196Z,51.23
2018-08-09T00:56:17.455Z,51.20
2018-08-09T00:58:46.705Z,51.10
2018-08-09T01:01:15.900Z,51.44
2018-08-09T01:03:45.063Z,51.24
2018-08-09T01:06:14.253Z,51.03
2018-08-09T01:08:47.608Z,51.56
2018-08-09T01:11:16.775Z,51.45
2018-08-09T01:13:45.972Z,51.91
2018-08-09T01:16:15.144Z,51.92
2018-08-09T01:18:44.366Z,52.45
2018-08-09T01:21:13.568Z,52.80
2018-08-09T01:23:42.788Z,53.29
2018-08-09T01:26:12.032Z,53.63
2018-08-09T01:28:41.355Z,54.00
2018-08-09T01:31:10.574Z,54.37
2018-08-09T01:33:39.868Z,54.71
2018-08-09T01:36:09.147Z,54.79
2018-08-09T01:38:38.371Z,55.29
2018-08-09T01:41:07.962Z,55.00
2018-08-09T01:43:53.563Z,55.44
2018-08-09T01:46:22.920Z,55.47
2018-08-09T01:48:52.304Z,55.31
2018-08-09T01:51:21.865Z,54.97
2018-08-09T01:53:51.835Z,55.17
2018-08-09T01:56:21.115Z,55.05
2018-08-09T01:58:51.049Z,55.19
2018-08-09T02:01:20.873Z,54.89
2018-08-09T02:03:50.089Z,55.07
2018-08-09T02:06:20.473Z,55.25
2018-08-09T02:08:49.807Z,55.48
2018-08-09T02:11:18.953Z,55.96
2018-08-09T02:13:48.106Z,55.91
2018-08-09T02:16:17.264Z,56.07
2018-08-09T02:18:46.441Z,56.17
2018-08-09T02:21:15.647Z,56.85
2018-08-09T02:23:44.862Z,57.26
2018-08-09T02:26:14.095Z,57.25
2018-08-09T02:28:43.360Z,57.16
2018-08-09T02:31:12.537Z,57.88
2018-08-09T02:33:41.709Z,57.80
2018-08-09T02:36:10.890Z,57.54
2018-08-09T02:38:40.123Z,57.79
2018-08-09T02:41:09.355Z,57.79
2018-08-09T02:43:38.585Z,57.60
2018-08-09T02:46:07.920Z,58.32
2018-08-09T02:48:37.149Z,58.17
2018-08-09T02:51:06.371Z,58.77
2018-08-09T02:53:35.534Z,58.56
2018-08-09T02:56:04.740Z,58.83
2018-08-09T02:58:33.960Z,58.58
2018-08-09T03:01:03.111Z,59.10
2018-08-09T03:03:32.424Z,58.67
2018-08-09T03:06:01.630Z,59.16
2018-08-09T03:08:30.761Z,58.96
2018-08-09T03:10:59.902Z,58.49
2018-08-09T03:13:29.108Z,58.48
2018-08-09T03:15:58.324Z,58.48
2018-08-09T03:18:27.548Z,58.56
2018-08-09T03:20:56.721Z,58.51
2018-08-09T03:23:25.922Z,58.74
2018-08-09T03:25:55.103Z,58.53
2018-08-09T03:28:24.299Z,58.17
2018-08-09T03:30:53.485Z,58.09
2018-08-09T03:33:22.735Z,58.05
2018-08-09T03:35:51.939Z,58.81
2018-08-09T03:38:21.185Z,58.82
2018-08-09T03:40:50.381Z,59.22
2018-08-09T03:43:19.635Z,58.96
2018-08-09T03:45:48.771Z,59.12
2018-08-09T03:48:18.074Z,59.54
2018-08-09T03:50:47.292Z,59.59
2018-08-09T03:53:16.442Z,60.48
2018-08-09T03:55:45.626Z,60.57
2018-08-09T03:58:14.816Z,60.65
2018-08-09T04:00:43.907Z,61.13
2018-08-09T04:03:13.174Z,60.93
2018-08-09T04:05:42.378Z,60.84
2018-08-09T04:08:11.599Z,60.84
2018-08-09T04:10:40.791Z,60.85
2018-08-09T04:13:09.962Z,60.71
2018-08-09T04:15:39.186Z,61.10
2018-08-09T04:18:08.408Z,60.57
2018-08-09T04:20:37.580Z,60.61
2018-08-09T04:23:06.815Z,60.15
2018-08-09T04:25:35.986Z,59.81
2018-08-09T04:28:05.298Z,59.68
2018-08-09T04:30:34.447Z,59.70
2018-08-09T04:33:03.648Z,59.52
2018-08-09T04:35:32.838Z,58.75
2018-08-09T04:38:02.175Z,58.77
2018-08-09T04:40:31.846Z,58.46
2018-08-09T04:43:00.924Z,58.04
2018-08-09T04:45:30.163Z,57.56
2018-08-09T04:47:59.268Z,57.18
2018-08-09T04:50:28.414Z,56.55
2018-08-09T04:52:57.505Z,56.43
2018-08-09T04:55:26.724Z,55.92
2018-08-09T04:57:55.895Z,55.51
2018-08-09T05:00:25.010Z,55.29
2018-08-09T05:02:54.166Z,55.09
2018-08-09T05:05:23.302Z,54.90
2018-08-09T05:07:52.497Z,54.72
2018-08-09T05:10:21.693Z,54.31
2018-08-09T05:12:50.802Z,54.45
2018-08-09T05:15:19.973Z,54.06
2018-08-09T05:17:49.113Z,54.14
2018-08-09T05:20:18.477Z,53.56
2018-08-09T05:22:47.751Z,53.74
2018-08-09T05:25:16.907Z,53.32
2018-08-09T05:27:46.072Z,52.91
2018-08-09T05:30:15.185Z,52.81
2018-08-09T05:32:44.316Z,52.40
2018-08-09T05:35:13.441Z,52.19
2018-08-09T05:37:42.589Z,52.28
2018-08-09T05:40:11.994Z,51.85
2018-08-09T05:42:41.143Z,51.61
2018-08-09T05:45:10.261Z,51.24
2018-08-09T05:47:39.656Z,51.26
2018-08-09T05:50:08.976Z,50.19
2018-08-09T05:52:38.668Z,50.40
2018-08-09T05:55:08.269Z,49.91
2018-08-09T05:57:37.477Z,49.75
2018-08-09T06:00:08.048Z,49.06
2018-08-09T06:02:37.625Z,49.41
2018-08-09T06:05:07.585Z,48.80
2018-08-09T06:07:36.715Z,48.06
2018-08-09T06:10:07.579Z,47.53
2018-08-09T06:12:36.800Z,46.91
2018-08-09T06:15:06.254Z,46.95
2018-08-09T06:17:35.387Z,46.72
2018-08-09T06:20:05.506Z,45.55
2018-08-09T06:22:34.813Z,39.77
2018-08-09T06:25:04.482Z,36.83
2018-08-09T06:27:33.643Z,34.37
2018-08-09T06:30:02.867Z,34.96
2018-08-09T06:32:32.051Z,39.13
2018-08-09T06:35:01.249Z,40.99
2018-08-09T06:37:30.469Z,42.56
2018-08-09T06:39:59.746Z,44.13
2018-08-09T06:42:28.835Z,45.52
2018-08-09T06:44:57.997Z,45.25
2018-08-09T06:47:27.199Z,44.99
2018-08-09T06:49:56.402Z,46.08
2018-08-09T06:52:25.473Z,46.35
2018-08-09T06:54:54.584Z,46.11
2018-08-09T06:57:23.687Z,47.01
2018-08-09T06:59:52.901Z,46.83
2018-08-09T07:02:22.014Z,45.65
2018-08-09T07:04:51.157Z,45.36
2018-08-09T07:07:20.278Z,45.84
2018-08-09T07:09:49.842Z,45.40
2018-08-09T07:12:18.978Z,45.15
2018-08-09T07:14:48.039Z,44.53
2018-08-09T07:17:17.161Z,44.96
2018-08-09T07:19:46.270Z,44.84
2018-08-09T07:22:15.374Z,44.72
2018-08-09T07:24:44.501Z,44.79
2018-08-09T07:27:13.592Z,44.92
2018-08-09T07:29:42.737Z,44.04
2018-08-09T07:32:11.830Z,44.16
2018-08-09T07:34:40.946Z,44.06
2018-08-09T07:37:10.053Z,44.19
2018-08-09T07:39:39.256Z,43.47
2018-08-09T07:42:08.301Z,42.46
2018-08-09T07:44:37.435Z,42.51
2018-08-09T07:47:06.577Z,42.73
2018-08-09T07:49:35.674Z,42.82
2018-08-09T07:52:04.800Z,41.67
2018-08-09T07:54:33.930Z,41.61
2018-08-09T07:57:03.095Z,41.61
2018-08-09T07:59:32.562Z,42.49
2018-08-09T08:02:01.651Z,41.97
2018-08-09T08:04:30.748Z,41.88
2018-08-09T08:06:59.939Z,41.50
2018-08-09T08:09:29.013Z,42.53
2018-08-09T08:11:58.076Z,42.12
2018-08-09T08:14:27.202Z,41.10
2018-08-09T08:16:56.309Z,41.23
2018-08-09T08:19:25.439Z,41.59
2018-08-09T08:21:54.655Z,41.11
2018-08-09T08:24:23.803Z,40.94
2018-08-09T08:26:52.951Z,41.03
2018-08-09T08:29:22.141Z,40.65
2018-08-09T08:31:51.895Z,40.48
2018-08-09T08:34:21.010Z,40.62
2018-08-09T08:36:50.162Z,40.47
2018-08-09T08:39:19.303Z,39.25
2018-08-09T08:41:48.570Z,39.99
2018-08-09T08:44:17.565Z,39.65
2018-08-09T08:46:46.715Z,39.47
2018-08-09T08:49:15.858Z,39.58
2018-08-09T08:51:44.934Z,38.17
2018-08-09T08:54:14.074Z,37.86
2018-08-09T08:56:43.182Z,37.75
2018-08-09T08:59:12.259Z,37.69
2018-08-09T09:01:41.380Z,36.82
2018-08-09T09:04:10.489Z,36.83
2018-08-09T09:06:39.630Z,35.68
2018-08-09T09:09:12.574Z,35.46
2018-08-09T09:11:41.848Z,34.39
2018-08-09T09:14:11.344Z,34.61
2018-08-09T09:16:40.420Z,32.18
2018-08-09T09:19:09.580Z,32.51
2018-08-09T09:21:38.721Z,33.36
2018-08-09T09:24:07.934Z,34.01
2018-08-09T09:26:37.046Z,33.07
2018-08-09T09:29:06.249Z,33.47
2018-08-09T09:31:35.390Z,30.86
2018-08-09T09:34:04.543Z,27.33
2018-08-09T09:36:33.670Z,26.66
2018-08-09T09:39:02.799Z,26.59
2018-08-09T09:41:31.952Z,27.09
2018-08-09T09:44:01.119Z,27.78
2018-08-09T09:46:30.283Z,26.83
2018-08-09T09:48:59.424Z,24.71
2018-08-09T09:51:28.502Z,25.30
2018-08-09T09:53:57.647Z,24.87
2018-08-09T09:56:26.767Z,25.25
2018-08-09T09:58:55.911Z,25.01
2018-08-09T10:01:30.266Z,25.33
2018-08-09T10:03:59.450Z,23.45
2018-08-09T10:06:28.556Z,24.10
2018-08-09T10:08:57.741Z,24.47
2018-08-09T10:11:26.842Z,24.24
2018-08-09T10:13:55.925Z,24.66
2018-08-09T10:16:25.060Z,24.33
2018-08-09T10:18:54.121Z,23.71
2018-08-09T10:21:23.251Z,23.59
2018-08-09T10:23:52.342Z,23.99
2018-08-09T10:26:21.490Z,24.19
2018-08-09T10:28:50.618Z,23.33
2018-08-09T10:31:19.795Z,23.49
2018-08-09T10:33:48.875Z,23.94
2018-08-09T10:36:17.991Z,24.72
2018-08-09T10:38:47.142Z,25.66
2018-08-09T10:41:16.286Z,27.64
2018-08-09T10:43:45.390Z,28.21
2018-08-09T10:46:14.549Z,27.99
2018-08-09T10:48:43.725Z,29.24
2018-08-09T10:51:12.850Z,29.24
2018-08-09T10:53:41.981Z,28.54
2018-08-09T10:56:11.111Z,28.69
2018-08-09T10:58:40.337Z,28.72
2018-08-09T11:01:09.411Z,29.58
2018-08-09T11:03:38.541Z,29.66
2018-08-09T11:06:07.638Z,29.37
2018-08-09T11:08:36.795Z,29.62
2018-08-09T11:11:12.047Z,30.77
2018-08-09T11:13:44.846Z,30.31
2018-08-09T11:16:14.885Z,30.14
2018-08-09T11:18:45.067Z,31.04
2018-08-09T11:21:14.537Z,31.12
2018-08-09T11:23:43.712Z,31.48
2018-08-09T11:26:12.828Z,30.74
2018-08-09T11:28:41.913Z,30.93
2018-08-09T11:31:11.085Z,30.70
2018-08-09T11:33:40.227Z,30.71
2018-08-09T11:36:09.336Z,29.67
2018-08-09T11:38:38.388Z,29.77
2018-08-09T11:41:07.637Z,28.99
2018-08-09T11:43:36.869Z,28.18
2018-08-09T11:46:05.995Z,29.04
2018-08-09T11:48:35.152Z,28.93
2018-08-09T11:51:04.282Z,29.35
2018-08-09T11:53:33.377Z,30.04
2018-08-09T11:56:02.523Z,30.17
2018-08-09T11:58:31.647Z,29.41
2018-08-09T12:01:00.745Z,30.05
2018-08-09T12:03:29.862Z,29.79
2018-08-09T12:05:58.991Z,29.85
2018-08-09T12:08:28.084Z,29.79
2018-08-09T12:10:57.179Z,29.70
2018-08-09T12:13:26.318Z,28.71
2018-08-09T12:15:55.349Z,28.45
2018-08-09T12:18:24.507Z,28.51
2018-08-09T12:20:53.667Z,29.06
2018-08-09T12:23:22.781Z,29.47
2018-08-09T12:25:51.935Z,28.29
2018-08-09T12:28:21.070Z,27.43
2018-08-09T12:30:50.234Z,27.70
2018-08-09T12:33:19.330Z,27.65
2018-08-09T12:35:48.475Z,26.97
2018-08-09T12:38:17.566Z,26.83
2018-08-09T12:40:46.706Z,26.64
2018-08-09T12:43:15.826Z,26.94
2018-08-09T12:45:45.027Z,26.79
2018-08-09T12:48:14.148Z,26.77
2018-08-09T12:50:43.229Z,27.43
2018-08-09T12:53:12.499Z,27.41
2018-08-09T12:55:41.623Z,27.17
2018-08-09T12:58:10.788Z,27.34
2018-08-09T13:00:46.779Z,27.19
2018-08-09T13:03:15.944Z,26.74
2018-08-09T13:05:45.068Z,26.83
2018-08-09T13:08:14.213Z,26.75
2018-08-09T13:10:43.302Z,25.87
2018-08-09T13:13:12.414Z,26.47
2018-08-09T13:15:41.588Z,26.14
2018-08-09T13:18:10.698Z,25.79
2018-08-09T13:20:39.846Z,26.28
2018-08-09T13:23:08.945Z,25.78
2018-08-09T13:25:38.058Z,26.29
2018-08-09T13:28:07.645Z,26.74
2018-08-09T13:30:36.737Z,25.60
2018-08-09T13:33:05.911Z,25.31
2018-08-09T13:35:35.031Z,25.34
2018-08-09T13:38:04.234Z,25.96
2018-08-09T13:40:33.318Z,25.68
2018-08-09T13:43:02.397Z,25.49
2018-08-09T13:45:31.482Z,24.81
2018-08-09T13:48:00.600Z,25.64
2018-08-09T13:50:29.656Z,26.08
2018-08-09T13:52:58.761Z,25.73
2018-08-09T13:55:27.815Z,25.55
2018-08-09T13:57:56.994Z,26.31
2018-08-09T14:00:26.082Z,26.56
2018-08-09T14:02:55.168Z,25.99
2018-08-09T14:05:25.282Z,24.98
2018-08-09T14:07:54.397Z,25.17
2018-08-09T14:10:23.510Z,25.72
2018-08-09T14:12:52.626Z,25.58
2018-08-09T14:15:21.764Z,25.46
2018-08-09T14:17:50.856Z,24.78
2018-08-09T14:20:19.961Z,24.88
2018-08-09T14:22:49.074Z,24.76
2018-08-09T14:25:18.169Z,24.87
2018-08-09T14:27:47.260Z,25.07
2018-08-09T14:30:16.827Z,24.98
2018-08-09T14:32:46.314Z,25.20
2018-08-09T14:35:16.766Z,25.56
2018-08-09T14:37:46.617Z,26.75
2018-08-09T14:40:16.720Z,25.73
2018-08-09T14:42:45.858Z,26.15
2018-08-09T14:45:16.460Z,26.23
2018-08-09T14:47:45.535Z,25.99
2018-08-09T14:50:14.657Z,26.03
2018-08-09T14:52:43.965Z,26.44
2018-08-09T14:55:13.809Z,26.54
2018-08-09T14:57:43.327Z,27.38
2018-08-09T15:00:17.778Z,27.29
2018-08-09T15:02:47.345Z,27.21
2018-08-09T15:05:17.146Z,27.16
2018-08-09T15:07:46.387Z,27.13
2018-08-09T15:10:16.936Z,26.68
2018-08-09T15:12:46.139Z,26.80
2018-08-09T15:15:15.293Z,27.18
2018-08-09T15:17:44.504Z,26.87
2018-08-09T15:20:14.703Z,26.77
2018-08-09T15:22:43.954Z,26.92
2018-08-09T15:25:13.233Z,27.01
2018-08-09T15:27:42.372Z,27.18
2018-08-09T15:30:16.359Z,27.82
2018-08-09T15:32:45.532Z,27.24
2018-08-09T15:35:14.850Z,28.25
2018-08-09T15:37:44.099Z,28.45
2018-08-09T15:40:13.863Z,28.14
2018-08-09T15:42:43.034Z,28.25
2018-08-09T15:45:14.216Z,28.58
2018-08-09T15:47:43.671Z,28.86
2018-08-09T15:50:20.335Z,32.26
2018-08-09T15:52:49.460Z,34.91
2018-08-09T15:55:19.079Z,39.30
2018-08-09T15:57:48.344Z,44.36
2018-08-09T16:00:23.071Z,44.81
2018-08-09T16:02:52.206Z,45.68
2018-08-09T16:05:21.366Z,48.68
2018-08-09T16:07:50.478Z,47.61
2018-08-09T16:10:19.607Z,48.59
2018-08-09T16:12:49.003Z,48.12
2018-08-09T16:15:19.431Z,47.43
2018-08-09T16:17:49.313Z,48.97
2018-08-09T16:20:18.412Z,48.07
2018-08-09T16:22:47.788Z,47.52
2018-08-09T16:25:18.661Z,48.54
2018-08-09T16:27:48.901Z,50.36
2018-08-09T16:30:20.666Z,48.35
2018-08-09T16:32:49.920Z,51.78
2018-08-09T16:35:19.264Z,51.97
2018-08-09T16:37:48.670Z,53.14
2018-08-09T16:40:20.288Z,50.14
2018-08-09T16:42:49.473Z,52.36
2018-08-09T16:45:19.744Z,51.28
2018-08-09T16:47:49.800Z,50.44
2018-08-09T16:50:21.157Z,50.41
2018-08-09T16:52:51.127Z,51.29
2018-08-09T16:55:21.699Z,50.31
2018-08-09T16:57:50.825Z,49.21
2018-08-09T17:00:21.735Z,48.31
2018-08-09T17:02:52.046Z,50.04
2018-08-09T17:05:23.042Z,52.83
2018-08-09T17:07:52.429Z,53.56
2018-08-09T17:10:24.000Z,54.36
2018-08-09T17:12:53.210Z,55.59
2018-08-09T17:15:25.008Z,55.66
2018-08-09T17:17:55.045Z,55.05
2018-08-09T17:20:28.483Z,56.12
2018-08-09T17:25:39.007Z,55.54
2018-08-09T17:28:08.127Z,55.69
2018-08-09T17:30:37.229Z,56.86
2018-08-09T17:33:06.447Z,57.38
2018-08-09T17:35:35.618Z,56.18
2018-08-09T17:38:04.880Z,57.97
2018-08-09T17:40:34.670Z,52.81
2018-08-09T17:43:04.642Z,52.77
2018-08-09T17:45:35.202Z,53.05
2018-08-09T17:48:04.871Z,52.40
2018-08-09T17:50:33.984Z,53.28
2018-08-09T17:53:03.975Z,52.89
2018-08-09T17:55:33.681Z,53.71
2018-08-09T17:58:02.857Z,53.83
2018-08-09T18:00:33.221Z,54.42
2018-08-09T18:03:02.324Z,56.76
2018-08-09T18:05:31.427Z,57.31
2018-08-09T18:08:00.848Z,57.94
2018-08-09T18:10:32.354Z,59.07
2018-08-09T18:13:01.470Z,58.92
2018-08-09T18:15:31.309Z,59.39
2018-08-09T18:18:01.308Z,60.35
2018-08-09T18:20:33.055Z,59.84
2018-08-09T18:23:02.270Z,59.84
2018-08-09T18:25:31.397Z,59.34
2018-08-09T18:28:00.555Z,60.17
2018-08-09T18:30:29.713Z,59.95
2018-08-09T18:32:58.896Z,59.39
2018-08-09T18:35:27.949Z,59.41
2018-08-09T18:37:57.075Z,58.51
2018-08-09T18:40:27.279Z,58.47
2018-08-09T18:42:56.519Z,58.25
2018-08-09T18:45:25.615Z,58.49
2018-08-09T18:47:54.767Z,58.29
2018-08-09T18:50:26.534Z,57.52
2018-08-09T18:52:55.825Z,57.87
2018-08-09T18:55:24.901Z,58.96
2018-08-09T18:57:53.985Z,59.12
2018-08-09T19:00:25.426Z,58.90
2018-08-09T19:02:54.794Z,59.72
2018-08-09T19:05:24.279Z,60.78
2018-08-09T19:07:53.435Z,60.84
2018-08-09T19:10:26.783Z,61.08
2018-08-09T19:12:56.084Z,61.93
2018-08-09T19:15:25.215Z,62.14
2018-08-09T19:17:54.457Z,61.61
2018-08-09T19:20:31.098Z,62.09
2018-08-09T19:23:00.456Z,62.26
2018-08-09T19:25:29.670Z,62.42
2018-08-09T19:27:58.938Z,62.52
2018-08-09T19:30:29.680Z,62.79
2018-08-09T19:32:58.857Z,63.04
2018-08-09T19:35:28.039Z,62.94
2018-08-09T19:37:57.168Z,62.79
2018-08-09T19:40:30.271Z,63.02
2018-08-09T19:42:59.447Z,62.65
2018-08-09T19:45:28.552Z,62.81
2018-08-09T19:47:57.679Z,62.98
2018-08-09T19:50:26.754Z,63.01
2018-08-09T19:52:55.858Z,63.39
2018-08-09T19:55:26.227Z,63.76
2018-08-09T19:57:55.337Z,63.12
2018-08-09T20:00:26.555Z,62.81
2018-08-09T20:02:55.683Z,62.59
2018-08-09T20:05:25.208Z,62.69
2018-08-09T20:07:54.375Z,62.58
2018-08-09T20:10:23.526Z,62.83
2018-08-09T20:12:52.674Z,62.45
2018-08-09T20:15:23.229Z,62.43
2018-08-09T20:17:52.419Z,61.70
2018-08-09T20:20:23.983Z,61.76
2018-08-09T20:22:53.354Z,61.67
2018-08-09T20:25:22.476Z,61.85
2018-08-09T20:27:51.538Z,61.64
2018-08-09T20:30:20.808Z,61.44
2018-08-09T20:32:50.200Z,61.05
2018-08-09T20:35:21.376Z,61.02
2018-08-09T20:37:50.852Z,60.93
2018-08-09T20:40:20.974Z,61.91
2018-08-09T20:42:50.965Z,62.43
2018-08-09T20:45:21.378Z,62.43
2018-08-09T20:47:50.551Z,62.34
2018-08-09T20:50:22.476Z,62.62
2018-08-09T20:52:51.974Z,61.73
2018-08-09T20:55:21.122Z,61.25
2018-08-09T20:57:51.086Z,61.34
2018-08-09T21:00:24.058Z,61.36
2018-08-09T21:02:54.623Z,61.81
2018-08-09T21:05:26.555Z,62.15
2018-08-09T21:07:56.393Z,62.41
2018-08-09T21:10:25.966Z,62.07
2018-08-09T21:12:55.136Z,62.55
2018-08-09T21:15:24.345Z,63.13
2018-08-09T21:17:53.445Z,62.90
2018-08-09T21:20:22.622Z,62.87
2018-08-09T21:22:52.058Z,62.74
2018-08-09T21:25:21.345Z,63.04
2018-08-09T21:27:50.756Z,63.10
2018-08-09T21:30:22.202Z,63.13
2018-08-09T21:32:51.838Z,63.01
2018-08-09T21:35:20.990Z,63.60
2018-08-09T21:37:50.138Z,63.54
2018-08-09T21:40:19.211Z,63.06
2018-08-09T21:42:48.319Z,62.99
2018-08-09T21:45:19.568Z,63.33
2018-08-09T21:47:48.785Z,61.85
2018-08-09T21:50:20.180Z,60.67
2018-08-09T21:52:49.313Z,58.88
2018-08-09T21:55:18.452Z,58.53
2018-08-09T21:57:47.964Z,57.47
2018-08-09T22:00:36.287Z,57.12
2018-08-09T22:03:05.525Z,55.89
2018-08-09T22:06:40.443Z,56.71
2018-08-09T22:09:15.529Z,55.79
2018-08-09T22:11:49.948Z,55.87
2018-08-09T22:14:24.431Z,55.88
2018-08-09T22:16:58.930Z,55.50
2018-08-09T22:19:33.294Z,55.74
2018-08-09T22:22:08.849Z,56.30
2018-08-09T22:24:38.268Z,56.51
2018-08-09T22:27:08.010Z,56.69
2018-08-09T22:29:37.129Z,57.61
2018-08-09T22:32:06.303Z,56.29
2018-08-09T22:34:35.507Z,56.13
2018-08-09T22:37:04.626Z,55.37
2018-08-09T22:39:33.789Z,55.34
2018-08-09T22:42:02.973Z,54.68
2018-08-09T22:44:32.072Z,53.38
2018-08-09T22:47:01.227Z,53.78
2018-08-09T22:49:30.420Z,53.75
2018-08-09T22:51:59.519Z,53.31
2018-08-09T22:54:28.625Z,53.86
2018-08-09T22:56:57.787Z,53.03
2018-08-09T22:59:26.943Z,53.10
2018-08-09T23:01:56.073Z,52.71
2018-08-09T23:04:25.247Z,52.81
2018-08-09T23:06:54.380Z,52.45
2018-08-09T23:09:23.547Z,52.62
2018-08-09T23:11:52.674Z,52.58
2018-08-09T23:14:21.778Z,52.68
2018-08-09T23:16:50.945Z,52.32
2018-08-09T23:19:20.121Z,52.98
2018-08-09T23:21:49.245Z,52.67
2018-08-09T23:24:18.354Z,53.34
2018-08-09T23:26:47.561Z,52.81
2018-08-09T23:29:16.819Z,53.03
2018-08-09T23:31:46.029Z,52.71
2018-08-09T23:34:15.174Z,52.64
2018-08-09T23:36:44.329Z,52.88
2018-08-09T23:39:13.928Z,52.70
2018-08-09T23:41:43.914Z,52.67
2018-08-09T23:44:13.026Z,52.26
2018-08-09T23:46:42.124Z,52.21
2018-08-09T23:49:11.312Z,51.80
2018-08-09T23:51:40.489Z,52.27
2018-08-09T23:54:09.651Z,52.71
2018-08-09T23:56:38.734Z,52.32
2018-08-09T23:59:07.871Z,52.81
